createdAt,value
2023-03-11T00:00:34.781Z,91628.88
2023-03-11T00:03:02.821Z,91624.88
2023-03-11T00:05:32.278Z,91627.22
2023-03-11T00:07:59.506Z,91627.44
2023-03-11T00:10:30.299Z,91637.91
2023-03-11T00:13:00.366Z,91646.66
2023-03-11T00:15:28.650Z,91639.34
2023-03-11T00:17:55.550Z,91641.63
2023-03-11T00:20:27.023Z,91635.75
2023-03-11T00:22:54.120Z,91639.34
2023-03-11T00:25:22.729Z,91637.66
2023-03-11T00:27:49.300Z,91618.94
2023-03-11T00:30:17.381Z,91632.06
2023-03-11T00:32:43.936Z,91607.81
2023-03-11T00:35:17.334Z,91611.84
2023-03-11T00:37:46.438Z,91601.19
2023-03-11T00:40:15.873Z,91605.22
2023-03-11T00:42:42.382Z,91590.31
2023-03-11T00:45:10.620Z,91606.00
2023-03-11T00:47:37.228Z,91621.06
2023-03-11T00:50:04.507Z,91632.25
2023-03-11T00:52:31.410Z,91640.78
2023-03-11T00:54:59.487Z,91651.88
2023-03-11T00:57:29.016Z,91640.34
2023-03-11T00:59:56.173Z,91647.06
2023-03-11T01:02:24.389Z,91626.88
2023-03-11T01:04:57.131Z,91632.72
2023-03-11T01:07:23.808Z,91624.84
2023-03-11T01:09:50.247Z,91656.25
2023-03-11T01:12:16.694Z,91641.31
2023-03-11T01:14:43.204Z,91639.63
2023-03-11T01:17:09.978Z,91628.19
2023-03-11T01:19:36.461Z,91635.94
2023-03-11T01:22:02.929Z,91624.28
2023-03-11T01:24:29.346Z,91636.94
2023-03-11T01:26:56.330Z,91646.13
2023-03-11T01:29:24.512Z,91642.09
2023-03-11T01:31:50.983Z,91644.91
2023-03-11T01:34:17.481Z,91629.53
2023-03-11T01:36:43.897Z,91628.09
2023-03-11T01:39:10.325Z,91624.94
2023-03-11T01:41:36.967Z,91616.06
2023-03-11T01:44:05.048Z,91617.56
2023-03-11T01:46:59.632Z,91634.47
2023-03-11T01:49:30.500Z,91645.25
2023-03-11T01:52:02.746Z,91647.88
2023-03-11T01:54:35.862Z,91639.03
2023-03-11T01:57:06.847Z,91631.72
2023-03-11T01:59:38.132Z,91633.03
2023-03-11T02:02:11.441Z,91612.56
2023-03-11T02:04:38.910Z,91607.53
2023-03-11T02:07:08.345Z,91610.22
2023-03-11T02:09:41.588Z,91619.41
2023-03-11T02:12:10.802Z,91612.47
2023-03-11T02:14:41.909Z,91623.72
2023-03-11T02:21:23.253Z,91627.63
2023-03-11T02:23:59.822Z,91614.97
2023-03-11T02:26:50.972Z,91608.03
2023-03-11T02:29:19.907Z,91621.09
2023-03-11T02:31:48.396Z,91636.53
2023-03-11T02:34:24.408Z,91635.53
2023-03-11T02:36:51.532Z,91630.38
2023-03-11T02:39:39.426Z,91641.00
2023-03-11T02:42:15.408Z,91650.88
2023-03-11T02:44:45.863Z,91653.13
2023-03-11T02:47:12.750Z,91651.44
2023-03-11T02:49:39.543Z,91653.56
2023-03-11T02:52:06.305Z,91642.34
2023-03-11T02:54:33.610Z,91659.47
2023-03-11T02:57:00.068Z,91638.84
2023-03-11T02:59:27.869Z,91628.69
2023-03-11T03:01:55.880Z,91637.06
2023-03-11T03:04:22.448Z,91641.44
2023-03-11T03:06:49.115Z,91648.00
2023-03-11T03:09:16.977Z,91647.00
2023-03-11T03:11:44.038Z,91648.25
2023-03-11T03:14:10.542Z,91642.66
2023-03-11T03:16:37.024Z,91643.09
2023-03-11T03:19:04.403Z,91647.81
2023-03-11T03:21:30.894Z,91636.13
2023-03-11T03:23:57.373Z,91631.28
2023-03-11T03:26:23.797Z,91637.31
2023-03-11T03:28:51.008Z,91639.38
2023-03-11T03:31:17.707Z,91641.84
2023-03-11T03:33:44.611Z,91650.34
2023-03-11T03:36:14.064Z,91647.88
2023-03-11T03:38:44.000Z,91656.06
2023-03-11T03:41:14.524Z,91665.56
2023-03-11T03:43:41.732Z,91670.78
2023-03-11T03:46:08.889Z,91666.53
2023-03-11T03:48:40.810Z,91670.88
2023-03-11T03:51:13.189Z,91671.44
2023-03-11T03:53:46.511Z,91670.66
2023-03-11T03:56:16.206Z,91680.88
2023-03-11T03:58:44.456Z,91685.97
2023-03-11T04:01:11.938Z,91705.06
2023-03-11T04:03:39.542Z,91710.59
2023-03-11T04:06:24.810Z,91704.00
2023-03-11T04:08:57.239Z,91703.69
2023-03-11T04:11:28.606Z,91709.16
2023-03-11T04:13:55.607Z,91709.56
2023-03-11T04:16:24.499Z,91711.06
2023-03-11T04:18:55.650Z,91713.91
2023-03-11T04:21:22.078Z,91709.75
2023-03-11T04:23:48.708Z,91705.59
2023-03-11T04:26:17.632Z,91691.97
2023-03-11T04:28:44.040Z,91696.63
2023-03-11T04:31:12.478Z,91701.97
2023-03-11T04:33:39.154Z,91699.41
2023-03-11T04:36:09.412Z,91700.81
2023-03-11T04:38:37.505Z,91704.53
2023-03-11T04:41:07.089Z,91695.31
2023-03-11T04:43:35.369Z,91699.88
2023-03-11T04:46:01.920Z,91714.56
2023-03-11T04:48:28.912Z,91722.84
2023-03-11T04:50:55.576Z,91722.97
2023-03-11T04:53:23.766Z,91720.25
2023-03-11T04:55:51.010Z,91716.50
2023-03-11T04:58:17.596Z,91717.44
2023-03-11T05:00:46.244Z,91723.06
2023-03-11T05:03:14.571Z,91719.06
2023-03-11T05:05:41.022Z,91725.88
2023-03-11T05:08:07.720Z,91735.50
2023-03-11T05:10:34.905Z,91727.22
2023-03-11T05:13:04.546Z,91725.72
2023-03-11T05:15:34.729Z,91715.91
2023-03-11T05:18:03.382Z,91719.44
2023-03-11T05:20:31.416Z,91725.72
2023-03-11T05:22:58.406Z,91721.34
2023-03-11T05:25:26.114Z,91727.06
2023-03-11T05:27:52.893Z,91727.00
2023-03-11T05:30:19.919Z,91710.13
2023-03-11T05:32:48.804Z,91704.66
2023-03-11T05:35:15.370Z,91706.03
2023-03-11T05:37:41.935Z,91721.91
2023-03-11T05:40:11.985Z,91721.25
2023-03-11T05:42:40.170Z,91723.00
2023-03-11T05:45:08.737Z,91722.16
2023-03-11T05:47:36.538Z,91725.72
2023-03-11T05:50:04.927Z,91731.59
2023-03-11T05:52:32.966Z,91722.50
2023-03-11T05:54:59.758Z,91727.88
2023-03-11T05:57:28.761Z,91733.47
2023-03-11T05:59:56.128Z,91724.38
2023-03-11T06:02:23.321Z,91723.56
2023-03-11T06:04:49.995Z,91722.00
2023-03-11T06:07:16.861Z,91722.00
2023-03-11T06:09:46.834Z,91719.63
2023-03-11T06:12:17.260Z,91735.25
2023-03-11T06:14:55.078Z,91746.34
2023-03-11T06:17:21.973Z,91739.78
2023-03-11T06:19:48.490Z,91748.06
2023-03-11T06:22:15.443Z,91746.34
2023-03-11T06:24:41.982Z,91757.41
2023-03-11T06:27:11.129Z,91749.66
2023-03-11T06:29:40.010Z,91749.38
2023-03-11T06:32:06.887Z,91755.53
2023-03-11T06:34:33.371Z,91759.41
2023-03-11T06:37:00.461Z,91760.28
2023-03-11T06:39:26.932Z,91765.25
2023-03-11T06:41:54.429Z,91764.91
2023-03-11T06:44:20.901Z,91770.06
2023-03-11T06:46:47.966Z,91764.47
2023-03-11T06:49:15.801Z,91766.09
2023-03-11T06:51:42.644Z,91778.78
2023-03-11T06:54:10.571Z,91784.88
2023-03-11T06:56:37.105Z,91779.91
2023-03-11T06:59:06.737Z,91789.38
2023-03-11T07:01:34.399Z,91795.66
2023-03-11T07:04:03.858Z,91794.41
2023-03-11T07:06:31.334Z,91795.09
2023-03-11T07:09:08.538Z,91809.63
2023-03-11T07:11:38.787Z,91809.63
2023-03-11T07:14:09.645Z,91808.78
2023-03-11T07:16:39.514Z,91802.94
2023-03-11T07:19:12.381Z,91798.91
2023-03-11T07:21:39.265Z,91806.59
2023-03-11T07:24:06.330Z,91811.09
2023-03-11T07:26:35.691Z,91816.09
2023-03-11T07:29:02.316Z,91817.03
2023-03-11T07:31:34.041Z,91814.69
2023-03-11T07:34:03.419Z,91814.81
2023-03-11T07:36:30.448Z,91818.41
2023-03-11T07:39:01.120Z,91812.38
2023-03-11T07:41:29.764Z,91821.25
2023-03-11T07:43:58.552Z,91836.91
2023-03-11T07:46:26.133Z,91843.38
2023-03-11T07:48:52.908Z,91835.09
2023-03-11T07:51:22.701Z,91839.59
2023-03-11T07:53:49.858Z,91840.47
2023-03-11T07:56:17.336Z,91842.94
2023-03-11T07:58:45.986Z,91845.38
2023-03-11T08:01:20.768Z,91844.94
2023-03-11T08:03:50.095Z,91851.84
2023-03-11T08:06:23.018Z,91854.75
2023-03-11T08:08:50.184Z,91849.19
2023-03-11T08:11:17.552Z,91833.88
2023-03-11T08:13:45.358Z,91826.97
2023-03-11T08:16:17.817Z,91831.06
2023-03-11T08:18:44.852Z,91831.31
2023-03-11T08:21:13.741Z,91826.53
2023-03-11T08:23:40.458Z,91829.50
2023-03-11T08:26:12.238Z,91836.75
2023-03-11T08:28:38.888Z,91838.56
2023-03-11T08:31:19.713Z,91844.66
2023-03-11T08:33:49.904Z,91847.03
2023-03-11T08:36:19.202Z,91858.28
2023-03-11T08:38:45.775Z,91863.78
2023-03-11T08:41:12.784Z,91860.50
2023-03-11T08:43:39.811Z,91875.56
2023-03-11T08:46:06.972Z,91875.06
2023-03-11T08:48:34.610Z,91863.91
2023-03-11T08:51:01.024Z,91872.88
2023-03-11T08:53:27.434Z,91877.94
2023-03-11T08:55:53.889Z,91876.34
2023-03-11T08:58:20.495Z,91876.34
2023-03-11T09:00:47.085Z,91873.19
2023-03-11T09:03:13.650Z,91866.47
2023-03-11T09:05:40.452Z,91869.28
2023-03-11T09:08:06.988Z,91864.75
2023-03-11T09:10:33.538Z,91868.69
2023-03-11T09:12:59.980Z,91860.53
2023-03-11T09:15:26.533Z,91860.78
2023-03-11T09:17:53.912Z,91871.81
2023-03-11T09:20:20.474Z,91864.88
2023-03-11T09:22:47.541Z,91876.81
2023-03-11T09:25:14.853Z,91877.06
2023-03-11T09:27:41.417Z,91876.13
2023-03-11T09:30:09.314Z,91882.09
2023-03-11T09:32:35.826Z,91884.00
2023-03-11T09:35:02.595Z,91887.44
2023-03-11T09:37:30.168Z,91892.28
2023-03-11T09:39:56.622Z,91898.16
2023-03-11T09:42:37.499Z,91891.81
2023-03-11T09:45:15.497Z,91894.66
2023-03-11T09:48:00.817Z,91900.28
2023-03-11T09:50:42.545Z,91895.38
2023-03-11T09:53:30.724Z,91896.53
2023-03-11T09:56:03.807Z,91905.19
2023-03-11T09:58:59.888Z,91894.41
2023-03-11T10:01:30.749Z,91895.59
2023-03-11T10:04:02.036Z,91893.16
2023-03-11T10:06:29.924Z,91895.63
2023-03-11T10:09:36.523Z,91895.88
2023-03-11T10:12:06.680Z,91902.41
2023-03-11T10:14:51.973Z,91886.00
2023-03-11T10:17:59.937Z,91882.72
2023-03-11T10:20:41.638Z,91883.69
2023-03-11T10:23:25.109Z,91877.44
2023-03-11T10:26:03.441Z,91882.00
2023-03-11T10:28:37.228Z,91875.81
2023-03-11T10:31:20.651Z,91878.59
2023-03-11T10:33:54.964Z,91874.78
2023-03-11T10:36:28.469Z,91873.56
2023-03-11T10:38:56.006Z,91877.47
2023-03-11T10:41:50.756Z,91887.00
2023-03-11T10:44:33.831Z,91879.53
2023-03-11T10:47:01.684Z,91885.28
2023-03-11T10:49:29.376Z,91884.66
2023-03-11T10:51:57.156Z,91886.75
2023-03-11T10:55:00.068Z,91892.50
2023-03-11T10:57:28.983Z,91890.69
2023-03-11T10:59:57.378Z,91892.13
2023-03-11T11:02:26.745Z,91885.25
2023-03-11T11:05:17.871Z,91889.16
2023-03-11T11:07:46.231Z,91891.91
2023-03-11T11:10:19.120Z,91879.56
2023-03-11T11:12:57.466Z,91875.13
2023-03-11T11:15:36.691Z,91872.34
2023-03-11T11:18:23.744Z,91875.00
2023-03-11T11:20:57.815Z,91864.72
2023-03-11T11:23:27.815Z,91872.50
2023-03-11T11:25:59.936Z,91857.66
2023-03-11T11:28:26.760Z,91860.59
2023-03-11T11:30:56.601Z,91856.72
2023-03-11T11:33:24.706Z,91851.59
2023-03-11T11:36:03.622Z,91853.25
2023-03-11T11:38:32.780Z,91861.09
2023-03-11T11:41:03.642Z,91855.56
2023-03-11T11:43:44.053Z,91859.53
2023-03-11T11:46:33.016Z,91867.50
2023-03-11T11:49:27.247Z,91867.81
2023-03-11T11:52:00.576Z,91849.63
2023-03-11T11:54:41.083Z,91856.94
2023-03-11T11:57:13.599Z,91861.13
2023-03-11T11:59:40.256Z,91858.50
2023-03-11T12:02:21.006Z,91852.28
2023-03-11T12:05:06.222Z,91858.28
2023-03-11T12:07:35.434Z,91847.84
2023-03-11T12:10:27.897Z,91847.97
2023-03-11T12:13:33.010Z,91848.56
2023-03-11T12:16:38.436Z,91854.63
2023-03-11T12:19:10.914Z,91850.47
2023-03-11T12:21:48.594Z,91848.84
2023-03-11T12:24:47.984Z,91841.25
2023-03-11T12:27:33.191Z,91837.25
2023-03-11T12:30:11.648Z,91831.34
2023-03-11T12:32:43.635Z,91830.94
2023-03-11T12:35:19.157Z,91832.03
2023-03-11T12:37:45.942Z,91826.31
2023-03-11T12:40:49.518Z,91822.16
2023-03-11T12:43:47.990Z,91823.19
2023-03-11T12:46:19.057Z,91824.50
2023-03-11T12:49:12.727Z,91813.81
2023-03-11T12:51:40.675Z,91823.47
2023-03-11T12:54:30.618Z,91809.88
2023-03-11T12:57:19.136Z,91819.56
2023-03-11T13:00:02.745Z,91817.44
2023-03-11T13:03:13.106Z,91813.47
2023-03-11T13:06:00.216Z,91806.88
2023-03-11T13:08:28.391Z,91806.09
2023-03-11T13:10:56.343Z,91801.28
2023-03-11T13:13:35.289Z,91805.50
2023-03-11T13:16:30.986Z,91801.56
2023-03-11T13:19:26.154Z,91805.19
2023-03-11T13:21:54.601Z,91801.59
2023-03-11T13:24:21.976Z,91810.59
2023-03-11T13:26:52.835Z,91818.66
2023-03-11T13:30:03.004Z,91818.72
2023-03-11T13:32:35.391Z,91820.16
2023-03-11T13:35:26.661Z,91817.19
2023-03-11T13:38:18.699Z,91820.00
2023-03-11T13:40:46.929Z,91821.84
2023-03-11T13:43:18.997Z,91815.03
2023-03-11T13:45:57.634Z,91822.63
2023-03-11T13:48:31.116Z,91824.97
2023-03-11T13:51:06.361Z,91827.22
2023-03-11T13:53:39.404Z,91823.31
2023-03-11T13:56:06.552Z,91824.38
2023-03-11T13:58:33.005Z,91825.81
2023-03-11T14:01:01.884Z,91835.22
2023-03-11T14:03:33.346Z,91833.81
2023-03-11T14:06:08.527Z,91836.09
2023-03-11T14:08:36.702Z,91839.09
2023-03-11T14:11:04.542Z,91848.38
2023-03-11T14:13:33.848Z,91850.59
2023-03-11T14:16:08.585Z,91836.63
2023-03-11T14:18:37.724Z,91836.81
2023-03-11T14:21:06.990Z,91825.22
2023-03-11T14:23:41.682Z,91835.75
2023-03-11T14:26:30.664Z,91828.84
2023-03-11T14:28:59.674Z,91838.75
2023-03-11T14:31:36.041Z,91835.38
2023-03-11T14:34:17.837Z,91842.31
2023-03-11T14:36:45.811Z,91842.22
2023-03-11T14:39:25.524Z,91833.47
2023-03-11T14:42:18.612Z,91836.66
2023-03-11T14:45:01.727Z,91845.47
2023-03-11T14:47:41.732Z,91838.66
2023-03-11T14:50:16.597Z,91840.94
2023-03-11T14:52:48.553Z,91854.13
2023-03-11T14:55:22.905Z,91845.72
2023-03-11T14:57:54.710Z,91846.38
2023-03-11T15:00:25.512Z,91847.78
2023-03-11T15:03:03.664Z,91851.47
2023-03-11T15:06:16.302Z,91856.06
2023-03-11T15:08:48.246Z,91844.84
2023-03-11T15:11:15.031Z,91842.94
2023-03-11T15:13:44.024Z,91838.97
2023-03-11T15:16:31.392Z,91843.88
2023-03-11T15:19:00.965Z,91852.00
2023-03-11T15:21:28.024Z,91855.25
2023-03-11T15:24:06.583Z,91865.16
2023-03-11T15:26:35.738Z,91861.41
2023-03-11T15:29:12.867Z,91858.13
2023-03-11T15:31:40.698Z,91873.84
2023-03-11T15:34:16.160Z,91877.50
2023-03-11T15:36:56.461Z,91878.03
2023-03-11T15:39:45.719Z,91883.28
2023-03-11T15:42:17.978Z,91891.09
2023-03-11T15:45:08.759Z,91892.31
2023-03-11T15:47:36.069Z,91899.84
2023-03-11T15:50:23.537Z,91904.97
2023-03-11T15:52:53.005Z,91908.03
2023-03-11T15:55:19.652Z,91915.16
2023-03-11T15:57:47.971Z,91914.44
2023-03-11T16:00:18.821Z,91905.22
2023-03-11T16:02:45.900Z,91906.81
2023-03-11T16:05:17.783Z,91914.50
2023-03-11T16:07:44.444Z,91917.88
2023-03-11T16:10:11.624Z,91922.88
2023-03-11T16:12:39.072Z,91929.72
2023-03-11T16:15:07.013Z,91938.03
2023-03-11T16:17:48.415Z,91929.56
2023-03-11T16:20:16.213Z,91934.06
2023-03-11T16:22:42.755Z,91940.34
2023-03-11T16:25:22.835Z,91941.25
2023-03-11T16:27:54.724Z,91943.63
2023-03-11T16:30:22.178Z,91942.66
2023-03-11T16:32:49.093Z,91942.94
2023-03-11T16:35:16.123Z,91950.94
2023-03-11T16:37:43.343Z,91944.94
2023-03-11T16:40:13.888Z,91941.50
2023-03-11T16:42:40.744Z,91946.38
2023-03-11T16:45:07.628Z,91954.78
2023-03-11T16:47:34.029Z,91957.34
2023-03-11T16:50:00.484Z,91958.34
2023-03-11T16:52:27.236Z,91962.50
2023-03-11T16:54:53.659Z,91958.94
2023-03-11T16:57:20.097Z,91960.53
2023-03-11T16:59:46.580Z,91967.94
2023-03-11T17:02:13.054Z,91964.47
2023-03-11T17:04:39.519Z,91966.66
2023-03-11T17:07:07.119Z,91970.69
2023-03-11T17:09:35.220Z,91972.97
2023-03-11T17:12:02.503Z,91964.47
2023-03-11T17:14:29.367Z,91971.25
2023-03-11T17:16:55.883Z,91973.78
2023-03-11T17:19:23.966Z,91967.69
2023-03-11T17:21:51.486Z,91979.09
2023-03-11T17:24:17.948Z,91972.66
2023-03-11T17:26:44.466Z,91965.09
2023-03-11T17:29:10.888Z,91986.59
2023-03-11T17:31:37.324Z,91984.44
2023-03-11T17:34:03.803Z,91993.72
2023-03-11T17:36:30.345Z,91998.94
2023-03-11T17:38:56.785Z,92004.91
2023-03-11T17:41:23.548Z,92013.41
2023-03-11T17:43:51.556Z,92013.94
2023-03-11T17:46:20.355Z,92020.63
2023-03-11T17:48:48.802Z,92029.34
2023-03-11T17:51:21.490Z,92034.53
2023-03-11T17:53:48.975Z,92039.63
2023-03-11T17:56:18.234Z,92035.38
2023-03-11T17:58:44.685Z,92044.75
2023-03-11T18:01:14.575Z,92045.91
2023-03-11T18:03:41.446Z,92046.88
2023-03-11T18:06:08.772Z,92050.81
2023-03-11T18:08:36.303Z,92048.22
2023-03-11T18:11:06.078Z,92046.88
2023-03-11T18:13:33.571Z,92056.00
2023-03-11T18:16:03.628Z,92060.94
2023-03-11T18:18:31.718Z,92062.44
2023-03-11T18:21:06.307Z,92065.03
2023-03-11T18:23:33.737Z,92064.00
2023-03-11T18:26:01.323Z,92069.47
2023-03-11T18:28:28.274Z,92066.53
2023-03-11T18:30:54.871Z,92070.69
2023-03-11T18:33:23.104Z,92069.75
2023-03-11T18:35:49.564Z,92073.47
2023-03-11T18:38:16.199Z,92078.22
2023-03-11T18:40:42.619Z,92080.25
2023-03-11T18:43:13.203Z,92083.28
2023-03-11T18:45:39.971Z,92086.34
2023-03-11T18:48:06.506Z,92093.59
2023-03-11T18:50:32.973Z,92093.03
2023-03-11T18:52:59.941Z,92095.63
2023-03-11T18:55:26.371Z,92094.06
2023-03-11T18:57:53.166Z,92092.13
2023-03-11T19:00:23.462Z,92101.41
2023-03-11T19:02:51.867Z,92101.66
2023-03-11T19:05:18.415Z,92094.38
2023-03-11T19:07:44.938Z,92106.66
2023-03-11T19:10:12.295Z,92105.19
2023-03-11T19:12:39.892Z,92117.34
2023-03-11T19:15:07.084Z,92116.25
2023-03-11T19:17:33.518Z,92118.53
2023-03-11T19:19:59.980Z,92123.28
2023-03-11T19:22:26.439Z,92130.47
2023-03-11T19:24:53.764Z,92132.50
2023-03-11T19:27:20.182Z,92132.41
2023-03-11T19:29:46.590Z,92136.47
2023-03-11T19:32:13.139Z,92130.72
2023-03-11T19:34:39.955Z,92133.19
2023-03-11T19:37:06.364Z,92134.66
2023-03-11T19:39:32.863Z,92138.38
2023-03-11T19:41:59.283Z,92137.50
2023-03-11T19:44:25.806Z,92141.53
2023-03-11T19:46:52.282Z,92138.16
2023-03-11T19:49:18.723Z,92141.63
2023-03-11T19:51:50.127Z,92138.84
2023-03-11T19:54:18.152Z,92139.28
2023-03-11T19:56:45.323Z,92144.34
2023-03-11T19:59:12.156Z,92140.97
2023-03-11T20:01:38.787Z,92149.06
2023-03-11T20:04:05.597Z,92141.16
2023-03-11T20:06:32.179Z,92152.78
2023-03-11T20:08:58.731Z,92152.63
2023-03-11T20:11:25.203Z,92164.91
2023-03-11T20:13:51.716Z,92159.81
2023-03-11T20:16:19.387Z,92169.25
2023-03-11T20:18:49.999Z,92168.25
2023-03-11T20:21:16.909Z,92166.25
2023-03-11T20:23:43.360Z,92173.41
2023-03-11T20:26:12.801Z,92174.09
2023-03-11T20:28:39.665Z,92170.59
2023-03-11T20:31:16.009Z,92178.34
2023-03-11T20:33:42.980Z,92174.19
2023-03-11T20:36:13.415Z,92174.41
2023-03-11T20:38:40.633Z,92174.41
2023-03-11T20:41:08.178Z,92182.41
2023-03-11T20:43:38.040Z,92181.22
2023-03-11T20:46:05.309Z,92182.84
2023-03-11T20:48:32.046Z,92182.03
2023-03-11T20:51:03.482Z,92192.03
2023-03-11T20:53:31.377Z,92200.69
2023-03-11T20:56:06.631Z,92196.38
2023-03-11T20:58:33.046Z,92197.38
2023-03-11T21:00:59.627Z,92202.41
2023-03-11T21:03:26.195Z,92198.69
2023-03-11T21:05:52.692Z,92195.97
2023-03-11T21:08:19.162Z,92199.41
2023-03-11T21:10:45.692Z,92204.44
2023-03-11T21:13:12.332Z,92204.88
2023-03-11T21:15:38.794Z,92204.31
2023-03-11T21:18:06.956Z,92208.34
2023-03-11T21:20:33.388Z,92212.94
2023-03-11T21:22:59.900Z,92204.59
2023-03-11T21:25:28.474Z,92205.19
2023-03-11T21:27:54.934Z,92208.78
2023-03-11T21:30:21.518Z,92210.41
2023-03-11T21:32:48.215Z,92213.00
2023-03-11T21:35:14.971Z,92219.19
2023-03-11T21:37:41.472Z,92209.84
2023-03-11T21:40:08.796Z,92215.78
2023-03-11T21:42:35.366Z,92222.97
2023-03-11T21:45:01.929Z,92224.84
2023-03-11T21:47:28.436Z,92223.03
2023-03-11T21:49:55.064Z,92228.63
2023-03-11T21:52:21.705Z,92223.09
2023-03-11T21:54:48.244Z,92228.34
2023-03-11T21:57:14.866Z,92219.22
2023-03-11T21:59:41.474Z,92218.66
2023-03-11T22:02:14.430Z,92208.75
2023-03-11T22:04:42.800Z,92216.88
2023-03-11T22:07:09.779Z,92210.56
2023-03-11T22:09:36.442Z,92220.34
2023-03-11T22:12:04.229Z,92223.72
2023-03-11T22:14:30.828Z,92224.13
2023-03-11T22:16:57.455Z,92223.63
2023-03-11T22:19:24.037Z,92224.03
2023-03-11T22:21:50.621Z,92225.47
2023-03-11T22:24:17.118Z,92225.47
2023-03-11T22:26:44.734Z,92227.84
2023-03-11T22:29:13.524Z,92224.88
2023-03-11T22:31:40.312Z,92224.88
2023-03-11T22:34:06.860Z,92223.50
2023-03-11T22:36:33.304Z,92240.22
2023-03-11T22:39:01.001Z,92229.91
2023-03-11T22:41:30.928Z,92243.81
2023-03-11T22:43:57.374Z,92234.47
2023-03-11T22:46:23.997Z,92239.41
2023-03-11T22:48:50.421Z,92230.13
2023-03-11T22:51:17.172Z,92231.13
2023-03-11T22:53:43.827Z,92235.31
2023-03-11T22:56:13.353Z,92234.53
2023-03-11T22:58:40.652Z,92235.16
2023-03-11T23:01:07.637Z,92234.94
2023-03-11T23:03:35.172Z,92239.88
2023-03-11T23:06:04.381Z,92245.47
2023-03-11T23:08:31.162Z,92242.16
2023-03-11T23:11:02.657Z,92245.91
2023-03-11T23:13:30.414Z,92244.75
2023-03-11T23:15:56.838Z,92240.75
2023-03-11T23:18:23.261Z,92246.91
2023-03-11T23:20:49.812Z,92249.97
2023-03-11T23:23:16.231Z,92245.41
2023-03-11T23:25:42.780Z,92242.78
2023-03-11T23:28:09.236Z,92244.16
2023-03-11T23:30:35.844Z,92245.13
2023-03-11T23:33:02.893Z,92245.13
2023-03-11T23:35:30.443Z,92243.56
2023-03-11T23:37:57.093Z,92242.56
2023-03-11T23:40:23.506Z,92245.13
2023-03-11T23:42:50.730Z,92245.91
2023-03-11T23:45:17.491Z,92248.22
2023-03-11T23:47:43.971Z,92244.25
2023-03-11T23:50:10.738Z,92248.59
2023-03-11T23:52:37.292Z,92245.81
2023-03-11T23:55:04.038Z,92244.63
2023-03-11T23:57:30.443Z,92238.06
2023-03-11T23:59:56.953Z,92236.25
